All City Stadium (Denver), Colorado
Current Conditions -  °F | °C
As of 8:53 PM on Saturday 22 Nov 2014 (Local Time) from KAPA Reporting Station
Broken Clouds Broken Clouds  
Wind Chill: 36°   Ceiling: 20000
Heat Index: 39°   Visibility: 10mi
Dew Point: 26°   Wind: 5mph
Humidity: 60%   Direction: 170°S
Pressure: 29.58"   Gusts: NA
Location:  39.69109°N, 104.9663°W
Report Text: KAPA 230353Z 17004KT 10SM SCT120 BKN200 04/M03 A2958 RMK AO2 SLP002 T00391033
Loading
Personal Weather Stations






























Interactive Weather Map New forecast layout! Learn more

10-Day Weather Forecast

Advertisements
Track Severe Weather on mobile